Time;durP1;ratioP1;P1;durP2;ratioP2;P2;SDS_P1;SDS_P2;PMS_P1;PMS_P2;Temp;Humidity;BMP_temperature;BMP_pressure;BME280_temperature;BME280_humidity;BME280_pressure;Samples;Min_cycle;Max_cycle;Signal;HPM_P1;HPM_P2
2023/08/17 00:01:51;;;;;;;11.20;6.30;;;19.70;99.90;;;;;;5055409;28;20396;-68
2023/08/17 00:04:16;;;;;;;9.82;5.40;;;19.60;99.90;;;;;;5055054;28;20020;-68
2023/08/17 00:06:42;;;;;;;11.45;6.10;;;19.60;99.90;;;;;;5055627;28;20468;-68
2023/08/17 00:09:09;;;;;;;10.68;6.13;;;19.60;99.90;;;;;;5055058;28;20071;-69
2023/08/17 00:11:34;;;;;;;9.13;6.57;;;19.60;99.90;;;;;;5055470;28;20032;-69
2023/08/17 00:14:00;;;;;;;9.15;5.97;;;19.60;99.90;;;;;;5055235;28;20027;-69
2023/08/17 00:16:26;;;;;;;10.98;6.28;;;19.60;99.90;;;;;;5054945;28;20107;-68
2023/08/17 00:18:52;;;;;;;11.25;6.47;;;19.60;99.90;;;;;;5054602;28;20056;-69
2023/08/17 00:21:17;;;;;;;11.13;7.07;;;19.60;99.90;;;;;;5054818;28;20459;-69
2023/08/17 00:23:43;;;;;;;12.05;7.13;;;19.60;99.90;;;;;;5054699;28;20086;-69
2023/08/17 00:26:09;;;;;;;14.02;7.68;;;19.60;99.90;;;;;;5053821;28;20025;-68
2023/08/17 00:28:35;;;;;;;8.77;6.47;;;19.50;99.90;;;;;;5054867;28;20112;-68
2023/08/17 00:31:01;;;;;;;11.23;7.05;;;19.50;99.90;;;;;;5054835;28;20021;-69
2023/08/17 00:33:27;;;;;;;13.48;7.13;;;19.40;99.90;;;;;;5054241;28;20366;-68
2023/08/17 00:35:53;;;;;;;12.45;7.05;;;19.30;99.90;;;;;;5054749;28;20032;-68
2023/08/17 00:38:18;;;;;;;9.13;6.43;;;19.30;99.90;;;;;;5054443;28;20017;-68
2023/08/17 00:40:44;;;;;;;13.55;6.85;;;19.30;99.90;;;;;;5054375;28;20021;-68
2023/08/17 00:43:10;;;;;;;12.82;6.45;;;19.20;99.90;;;;;;5054838;28;20106;-68
2023/08/17 00:45:36;;;;;;;9.18;6.38;;;19.30;99.90;;;;;;5054061;28;20029;-68
2023/08/17 00:48:03;;;;;;;10.48;5.88;;;19.30;99.90;;;;;;5053446;28;20021;-68
2023/08/17 00:50:29;;;;;;;11.68;6.10;;;19.20;99.90;;;;;;5054615;28;20087;-69
2023/08/17 00:52:56;;;;;;;12.27;6.50;;;19.30;99.90;;;;;;5054164;28;20024;-69
2023/08/17 00:55:22;;;;;;;14.70;6.38;;;19.30;99.90;;;;;;5054243;28;20465;-68
2023/08/17 00:57:47;;;;;;;9.85;6.00;;;19.30;99.90;;;;;;5054453;28;20384;-68
2023/08/17 01:00:13;;;;;;;14.68;6.60;;;19.20;99.90;;;;;;5054621;28;20028;-68
2023/08/17 01:02:43;;;;;;;10.85;6.50;;;19.10;99.90;;;;;;5054098;28;20517;-68
2023/08/17 01:05:09;;;;;;;12.65;7.05;;;19.10;99.90;;;;;;5053969;28;20429;-68
2023/08/17 01:07:34;;;;;;;39.40;7.53;;;19.00;99.90;;;;;;5053908;28;20104;-68
2023/08/17 01:10:01;;;;;;;80.40;7.50;;;19.10;99.90;;;;;;5053906;28;20051;-68
2023/08/17 01:12:50;;;;;;;10.50;7.57;;;19.10;99.90;;;;;;5054538;28;20036;-68
2023/08/17 01:15:21;;;;;;;11.07;7.20;;;19.10;99.90;;;;;;5050502;28;20086;-68
2023/08/17 01:17:55;;;;;;;10.18;6.93;;;19.00;99.90;;;;;;5053810;28;20032;-68
2023/08/17 01:20:23;;;;;;;9.68;6.47;;;18.90;99.90;;;;;;5053769;28;20052;-68
2023/08/17 01:22:50;;;;;;;8.40;6.15;;;18.90;99.90;;;;;;5053667;28;20020;-68
2023/08/17 01:25:15;;;;;;;11.13;5.80;;;18.80;99.90;;;;;;5053629;28;20020;-68
2023/08/17 01:27:43;;;;;;;8.13;5.35;;;18.70;99.90;;;;;;5053625;28;20465;-67
2023/08/17 01:30:11;;;;;;;10.02;5.72;;;18.70;99.90;;;;;;5052009;28;20119;-68
2023/08/17 01:32:44;;;;;;;16.98;6.18;;;18.70;99.90;;;;;;5053488;28;20085;-68
2023/08/17 01:35:34;;;;;;;823.78;15.15;;;18.80;99.90;;;;;;5054080;28;20032;-68
2023/08/17 01:38:04;;;;;;;15.38;4.05;;;18.70;99.90;;;;;;5053155;28;20017;-68
2023/08/17 01:40:32;;;;;;;5.20;4.10;;;18.50;99.90;;;;;;5054016;28;20107;-68
2023/08/17 01:42:58;;;;;;;14.10;4.55;;;18.40;99.90;;;;;;5053734;28;20025;-68
2023/08/17 01:45:25;;;;;;;22.10;5.30;;;18.50;99.90;;;;;;5053356;28;20051;-68
2023/08/17 01:47:51;;;;;;;165.13;6.70;;;18.50;99.90;;;;;;5053043;28;20033;-68
2023/08/17 01:50:16;;;;;;;82.47;6.00;;;18.50;99.90;;;;;;5054364;28;20095;-69
2023/08/17 01:52:42;;;;;;;90.85;6.25;;;18.40;99.90;;;;;;5053680;28;20071;-68
2023/08/17 01:55:08;;;;;;;16.98;4.70;;;18.50;99.90;;;;;;5053615;28;20025;-68
2023/08/17 01:57:35;;;;;;;11.30;5.50;;;18.50;99.90;;;;;;5053311;28;20032;-68
2023/08/17 02:00:01;;;;;;;17.42;6.15;;;18.40;99.90;;;;;;5053374;28;20021;-68
2023/08/17 02:02:26;;;;;;;25.73;5.43;;;18.40;99.90;;;;;;5053745;28;20070;-68
2023/08/17 02:04:52;;;;;;;24.88;5.53;;;18.30;99.90;;;;;;5053210;28;20362;-68
2023/08/17 02:07:18;;;;;;;29.20;5.95;;;18.30;99.90;;;;;;5053775;28;20029;-68
2023/08/17 02:09:43;;;;;;;80.10;6.20;;;18.30;99.90;;;;;;5053264;28;20021;-68
2023/08/17 02:12:09;;;;;;;117.72;6.32;;;18.30;99.90;;;;;;5053166;28;20021;-68
2023/08/17 02:14:34;;;;;;;14.52;5.45;;;18.30;99.90;;;;;;5053143;28;20033;-68
2023/08/17 02:17:00;;;;;;;8.68;4.78;;;18.30;99.90;;;;;;5051947;28;20059;-69
2023/08/17 02:19:26;;;;;;;11.77;5.25;;;18.20;99.90;;;;;;5052757;28;20025;-68
2023/08/17 02:21:51;;;;;;;16.50;5.20;;;18.20;99.90;;;;;;5053085;28;20376;-68
2023/08/17 02:24:17;;;;;;;17.38;4.95;;;18.20;99.90;;;;;;5053007;28;20025;-68
2023/08/17 02:26:42;;;;;;;25.83;5.10;;;18.10;99.90;;;;;;5053088;28;20032;-68
2023/08/17 02:29:08;;;;;;;14.02;5.00;;;18.10;99.90;;;;;;5053821;28;20508;-68
2023/08/17 02:31:34;;;;;;;41.47;4.88;;;18.10;99.90;;;;;;5053253;28;20029;-68
2023/08/17 02:34:04;;;;;;;11.85;4.30;;;18.10;99.90;;;;;;5052958;28;20025;-68
2023/08/17 02:36:30;;;;;;;8.45;4.80;;;18.00;99.90;;;;;;5053488;28;20335;-67
2023/08/17 02:38:56;;;;;;;6.75;4.32;;;18.00;99.90;;;;;;5052871;28;20021;-68
2023/08/17 02:41:22;;;;;;;12.48;4.88;;;18.00;99.90;;;;;;5052904;28;20021;-68
2023/08/17 02:43:47;;;;;;;8.43;4.80;;;18.00;99.90;;;;;;5052923;28;20025;-68
2023/08/17 02:46:13;;;;;;;10.60;4.75;;;18.00;99.90;;;;;;5052831;28;20140;-68
2023/08/17 02:48:39;;;;;;;6.93;5.03;;;18.00;99.90;;;;;;5052528;28;20041;-68
2023/08/17 02:51:04;;;;;;;25.70;5.07;;;18.00;99.90;;;;;;5055662;28;20024;-68
2023/08/17 02:53:30;;;;;;;115.57;5.45;;;18.00;99.90;;;;;;5056432;28;20021;-68
2023/08/17 02:55:55;;;;;;;224.30;6.70;;;18.00;99.90;;;;;;5056107;28;20078;-68
2023/08/17 02:58:21;;;;;;;19.30;4.40;;;17.90;99.90;;;;;;5056376;28;20107;-67
2023/08/17 03:00:47;;;;;;;326.55;9.07;;;17.80;99.90;;;;;;5056315;28;20028;-68
2023/08/17 03:03:12;;;;;;;318.45;8.70;;;17.80;99.90;;;;;;5056114;28;20025;-67
2023/08/17 03:05:38;;;;;;;186.48;6.40;;;17.60;99.90;;;;;;5056246;28;20044;-68
2023/08/17 03:08:04;;;;;;;7.35;3.65;;;17.50;99.90;;;;;;5055971;28;20048;-68
2023/08/17 03:10:30;;;;;;;6.35;4.07;;;17.50;99.90;;;;;;5055888;28;20025;-68
2023/08/17 03:12:56;;;;;;;15.13;4.28;;;17.40;99.90;;;;;;5056336;28;20068;-67
2023/08/17 03:15:21;;;;;;;76.38;4.57;;;17.40;99.90;;;;;;5056322;28;20032;-68
2023/08/17 03:17:47;;;;;;;16.33;3.85;;;17.40;99.90;;;;;;5055894;28;20440;-68
2023/08/17 03:20:13;;;;;;;4.45;3.67;;;17.40;99.90;;;;;;5056004;28;20393;-68
2023/08/17 03:22:38;;;;;;;120.72;4.82;;;17.40;99.90;;;;;;5054653;28;20036;-68
2023/08/17 03:25:04;;;;;;;198.57;6.03;;;17.40;99.90;;;;;;5055115;28;20036;-68
2023/08/17 03:27:30;;;;;;;7.95;3.67;;;17.40;99.90;;;;;;5056118;28;20029;-68
2023/08/17 03:29:56;;;;;;;4.35;3.40;;;17.30;99.90;;;;;;5055944;28;20100;-68
2023/08/17 03:32:22;;;;;;;7.20;3.75;;;17.30;99.90;;;;;;5055847;28;20021;-68
2023/08/17 03:34:47;;;;;;;6.70;3.67;;;17.20;99.90;;;;;;5054439;28;20040;-68
2023/08/17 03:37:13;;;;;;;5.15;3.92;;;17.30;99.90;;;;;;5055982;28;20017;-68
2023/08/17 03:39:38;;;;;;;6.35;3.90;;;17.30;99.90;;;;;;5055957;28;20023;-68
2023/08/17 03:42:04;;;;;;;13.43;5.05;;;17.30;99.90;;;;;;5055587;28;20031;-67
2023/08/17 03:44:30;;;;;;;12.00;5.65;;;17.30;99.90;;;;;;5055573;28;20418;-68
2023/08/17 03:46:55;;;;;;;13.93;5.18;;;17.30;99.90;;;;;;5056080;28;20025;-68
2023/08/17 03:49:22;;;;;;;8.65;5.00;;;17.30;99.90;;;;;;5055369;28;20041;-68
2023/08/17 03:51:47;;;;;;;6.25;4.88;;;17.30;99.90;;;;;;5055619;28;20373;-68
2023/08/17 03:54:13;;;;;;;9.65;4.20;;;17.30;99.90;;;;;;5054964;28;20032;-66
2023/08/17 03:56:38;;;;;;;6.40;4.32;;;17.40;99.90;;;;;;5055537;28;20032;-67
2023/08/17 03:59:04;;;;;;;13.90;4.25;;;17.40;99.90;;;;;;5055229;28;20025;-67
2023/08/17 04:01:30;;;;;;;10.77;4.85;;;17.30;99.90;;;;;;5055073;28;20062;-68
2023/08/17 04:03:56;;;;;;;7.57;4.43;;;17.30;99.90;;;;;;5055538;28;20029;-69
2023/08/17 04:06:22;;;;;;;4.40;3.55;;;17.20;99.90;;;;;;5055038;28;20047;-67
2023/08/17 04:08:48;;;;;;;12.05;3.80;;;17.20;99.90;;;;;;5054998;28;20021;-68
2023/08/17 04:11:13;;;;;;;5.93;3.35;;;17.20;99.90;;;;;;5055031;28;20052;-67
2023/08/17 04:13:39;;;;;;;8.95;4.07;;;17.10;99.90;;;;;;5054843;28;20036;-67
2023/08/17 04:16:05;;;;;;;12.98;4.05;;;17.10;99.90;;;;;;5053597;28;20306;-65
2023/08/17 04:18:30;;;;;;;8.75;4.35;;;17.10;99.90;;;;;;5054944;28;20322;-67
2023/08/17 04:20:56;;;;;;;11.98;3.90;;;17.20;99.90;;;;;;5054787;28;20032;-68
2023/08/17 04:23:22;;;;;;;6.18;4.28;;;17.20;99.90;;;;;;5054553;28;20021;-66
2023/08/17 04:25:48;;;;;;;7.53;4.63;;;17.20;99.90;;;;;;5054429;28;20029;-66
2023/08/17 04:28:14;;;;;;;18.55;4.15;;;17.20;99.90;;;;;;5054987;28;20396;-66
2023/08/17 04:30:39;;;;;;;9.45;4.38;;;17.20;99.90;;;;;;5054959;28;20103;-66
2023/08/17 04:33:07;;;;;;;66.18;4.85;;;17.20;99.90;;;;;;5054616;28;20143;-66
2023/08/17 04:35:33;;;;;;;14.80;3.63;;;17.30;99.90;;;;;;5054825;28;20025;-65
2023/08/17 04:37:58;;;;;;;39.55;4.28;;;17.40;99.90;;;;;;5054543;28;20028;-67
2023/08/17 04:40:24;;;;;;;47.75;3.80;;;17.40;99.90;;;;;;5054470;28;20020;-67
2023/08/17 04:42:50;;;;;;;58.10;4.20;;;17.40;99.90;;;;;;5054397;28;20446;-68
2023/08/17 04:45:15;;;;;;;68.57;4.35;;;17.40;99.90;;;;;;5054602;28;20032;-68
2023/08/17 04:47:41;;;;;;;152.40;5.75;;;17.40;99.90;;;;;;5054281;28;20028;-68
2023/08/17 04:50:07;;;;;;;166.73;5.93;;;17.50;99.90;;;;;;5054808;28;20346;-67
2023/08/17 04:52:33;;;;;;;134.13;5.78;;;17.40;99.90;;;;;;5054243;28;20043;-66
2023/08/17 04:54:58;;;;;;;281.05;8.00;;;17.30;99.90;;;;;;5054469;28;20454;-66
2023/08/17 04:57:24;;;;;;;296.50;9.05;;;17.10;99.90;;;;;;5054150;28;20032;-68
2023/08/17 04:59:50;;;;;;;371.65;8.77;;;17.00;99.90;;;;;;5054916;28;20036;-68
2023/08/17 05:02:16;;;;;;;78.20;4.38;;;16.90;99.90;;;;;;5054315;28;20123;-68
2023/08/17 05:04:41;;;;;;;22.25;3.90;;;16.90;99.90;;;;;;5054230;28;20108;-68
2023/08/17 05:07:07;;;;;;;5.63;3.38;;;17.00;99.90;;;;;;5053863;28;20094;-68
2023/08/17 05:09:33;;;;;;;4.30;3.25;;;17.10;99.90;;;;;;5054425;28;20354;-68
2023/08/17 05:11:59;;;;;;;34.80;4.07;;;17.20;99.90;;;;;;5053868;28;20017;-68
2023/08/17 05:14:24;;;;;;;121.65;4.85;;;17.30;99.90;;;;;;5053724;28;20025;-68
2023/08/17 05:16:50;;;;;;;499.02;10.82;;;17.30;99.90;;;;;;5054045;28;20412;-70
2023/08/17 05:19:16;;;;;;;5.07;3.63;;;17.30;99.90;;;;;;5054789;28;20025;-66
2023/08/17 05:21:41;;;;;;;128.85;5.40;;;17.30;99.90;;;;;;5056107;28;20372;-66
2023/08/17 05:24:07;;;;;;;178.43;5.80;;;17.40;99.90;;;;;;5053944;28;20029;-68
2023/08/17 05:26:33;;;;;;;357.05;7.50;;;17.40;99.90;;;;;;5054164;28;20037;-68
2023/08/17 05:28:59;;;;;;;467.80;10.27;;;17.50;99.90;;;;;;5053639;28;20083;-67
2023/08/17 05:31:24;;;;;;;88.60;4.13;;;17.50;99.90;;;;;;5054377;28;20025;-67
2023/08/17 05:33:50;;;;;;;500.73;10.15;;;17.50;99.90;;;;;;5054074;28;20035;-67
2023/08/17 05:36:15;;;;;;;75.72;4.30;;;17.50;99.90;;;;;;5053762;28;20071;-66
2023/08/17 05:38:41;;;;;;;475.50;12.70;;;17.50;99.90;;;;;;5053710;28;20017;-67
2023/08/17 05:41:07;;;;;;;213.07;5.90;;;17.50;99.90;;;;;;5053364;28;20079;-66
2023/08/17 05:43:32;;;;;;;109.18;4.50;;;17.40;99.90;;;;;;5053290;28;20017;-66
2023/08/17 05:46:01;;;;;;;369.85;8.75;;;17.50;99.90;;;;;;5053652;28;20107;-66
2023/08/17 05:48:26;;;;;;;30.75;3.83;;;17.60;99.90;;;;;;5053232;28;20048;-66
2023/08/17 05:50:52;;;;;;;7.43;3.70;;;17.60;99.90;;;;;;5053355;28;20477;-66
2023/08/17 05:53:18;;;;;;;109.18;4.72;;;17.80;99.90;;;;;;5054167;28;20021;-66
2023/08/17 05:55:43;;;;;;;54.90;3.60;;;17.90;99.90;;;;;;5052938;28;20519;-66
2023/08/17 05:58:09;;;;;;;201.82;5.68;;;18.00;99.90;;;;;;5052311;28;20021;-65
2023/08/17 06:00:35;;;;;;;111.82;5.28;;;18.10;99.90;;;;;;5053200;28;20029;-66
2023/08/17 06:03:01;;;;;;;292.48;9.20;;;18.10;99.90;;;;;;5053235;28;20358;-66
2023/08/17 06:05:30;;;;;;;223.68;6.95;;;18.20;99.90;;;;;;5053797;28;20029;-66
2023/08/17 06:07:56;;;;;;;471.70;13.38;;;18.30;99.90;;;;;;5053242;28;20432;-67
2023/08/17 06:10:25;;;;;;;65.90;4.78;;;18.30;99.90;;;;;;5053033;28;20017;-67
2023/08/17 06:12:57;;;;;;;226.65;7.15;;;18.20;99.90;;;;;;5053232;28;20341;-66
2023/08/17 06:15:23;;;;;;;25.70;4.80;;;18.30;99.90;;;;;;5052992;28;20032;-67
2023/08/17 06:17:52;;;;;;;22.80;4.63;;;18.40;99.90;;;;;;5052852;28;20104;-68
2023/08/17 06:20:18;;;;;;;267.85;9.20;;;18.50;99.90;;;;;;5052598;28;20415;-68
2023/08/17 06:22:44;;;;;;;126.30;6.88;;;18.70;99.90;;;;;;5053289;28;20025;-68
2023/08/17 06:25:10;;;;;;;103.00;6.43;;;18.70;99.90;;;;;;5054466;28;20017;-67
2023/08/17 06:27:36;;;;;;;59.65;5.85;;;18.80;99.90;;;;;;5056859;28;20029;-66
2023/08/17 06:30:03;;;;;;;16.38;5.40;;;18.80;99.90;;;;;;5057096;28;20021;-68
2023/08/17 06:32:30;;;;;;;13.18;5.05;;;18.90;99.90;;;;;;5056580;28;20477;-68
2023/08/17 06:34:57;;;;;;;11.07;5.65;;;19.00;99.90;;;;;;5056682;28;20025;-68
2023/08/17 06:37:22;;;;;;;9.38;5.47;;;19.20;99.90;;;;;;5056895;28;20446;-68
2023/08/17 06:39:48;;;;;;;11.85;5.38;;;19.30;99.90;;;;;;5056653;28;20032;-66
2023/08/17 06:42:14;;;;;;;8.98;5.85;;;19.50;99.90;;;;;;5056932;28;20031;-67
2023/08/17 06:44:39;;;;;;;8.27;6.35;;;19.60;99.90;;;;;;5056701;28;20028;-67
2023/08/17 06:47:05;;;;;;;9.50;6.55;;;19.70;99.90;;;;;;5056634;28;20361;-68
2023/08/17 06:49:31;;;;;;;12.20;6.70;;;19.80;99.90;;;;;;5054854;28;20080;-67
2023/08/17 06:51:56;;;;;;;18.08;7.30;;;19.90;99.90;;;;;;5056516;28;20033;-67
2023/08/17 06:54:22;;;;;;;9.68;7.55;;;20.00;99.90;;;;;;5056483;28;20021;-67
2023/08/17 06:56:48;;;;;;;13.82;9.18;;;20.10;99.90;;;;;;5057038;28;20502;-67
2023/08/17 06:59:13;;;;;;;9.35;6.85;;;20.30;99.90;;;;;;5056360;28;20062;-68
2023/08/17 07:01:39;;;;;;;12.32;7.93;;;20.30;99.90;;;;;;5056096;28;20078;-70
2023/08/17 07:04:05;;;;;;;12.00;8.15;;;20.40;99.90;;;;;;5056268;28;20052;-68
2023/08/17 07:06:31;;;;;;;15.55;9.48;;;20.40;99.90;;;;;;5056206;28;20032;-68
2023/08/17 07:08:56;;;;;;;15.65;10.45;;;20.40;99.90;;;;;;5056242;28;20017;-68
2023/08/17 07:11:22;;;;;;;22.65;11.93;;;20.50;99.90;;;;;;5055875;28;20025;-68
2023/08/17 07:13:48;;;;;;;18.48;10.70;;;20.50;99.90;;;;;;5056119;28;20114;-68
2023/08/17 07:16:13;;;;;;;18.77;10.73;;;20.60;99.90;;;;;;5056136;28;20147;-68
2023/08/17 07:18:39;;;;;;;20.90;10.38;;;20.60;99.90;;;;;;5056173;28;20480;-67
2023/08/17 07:21:05;;;;;;;16.63;9.50;;;20.70;99.90;;;;;;5056089;28;20126;-68
2023/08/17 07:23:31;;;;;;;13.27;9.20;;;20.90;99.90;;;;;;5056435;28;20091;-68
2023/08/17 07:25:57;;;;;;;13.00;9.05;;;20.90;99.90;;;;;;5056042;28;20059;-68
2023/08/17 07:28:22;;;;;;;14.98;8.52;;;21.10;99.90;;;;;;5056280;28;20068;-68
2023/08/17 07:30:48;;;;;;;15.82;8.20;;;21.20;99.90;;;;;;5055944;28;20028;-67
2023/08/17 07:33:14;;;;;;;13.15;8.18;;;21.20;99.90;;;;;;5055802;28;20029;-66
2023/08/17 07:35:39;;;;;;;15.82;8.80;;;21.50;99.90;;;;;;5055822;28;20400;-65
2023/08/17 07:38:05;;;;;;;13.80;7.88;;;21.60;99.90;;;;;;5055757;28;20135;-66
2023/08/17 07:40:31;;;;;;;16.38;9.63;;;21.80;99.90;;;;;;5055600;28;20047;-67
2023/08/17 07:42:57;;;;;;;20.48;9.38;;;21.90;99.90;;;;;;5055621;28;20036;-67
2023/08/17 07:45:22;;;;;;;13.95;8.13;;;22.00;99.90;;;;;;5056107;28;20034;-67
2023/08/17 07:47:48;;;;;;;16.20;9.23;;;22.20;99.90;;;;;;5055367;28;20461;-70
2023/08/17 07:50:13;;;;;;;12.13;9.18;;;22.40;99.90;;;;;;5056114;28;20450;-67
2023/08/17 07:52:39;;;;;;;14.68;8.77;;;22.40;99.90;;;;;;5055109;28;20036;-65
2023/08/17 07:55:05;;;;;;;14.00;9.60;;;22.50;99.90;;;;;;5055505;28;20035;-66
2023/08/17 07:57:31;;;;;;;15.43;10.13;;;22.60;99.90;;;;;;5055274;28;20380;-68
2023/08/17 07:59:56;;;;;;;17.17;9.50;;;22.60;99.90;;;;;;5055118;28;20458;-67
2023/08/17 08:02:22;;;;;;;14.98;9.52;;;22.70;99.90;;;;;;5055783;28;20460;-68
2023/08/17 08:04:50;;;;;;;13.63;9.20;;;22.70;99.90;;;;;;5055662;28;20083;-68
2023/08/17 08:07:16;;;;;;;14.10;10.27;;;22.80;99.90;;;;;;5055132;28;20017;-67
2023/08/17 08:09:42;;;;;;;14.05;9.63;;;22.90;99.90;;;;;;5055674;28;20017;-68
2023/08/17 08:12:08;;;;;;;15.50;10.15;;;22.90;99.90;;;;;;5055278;28;20029;-68
2023/08/17 08:14:35;;;;;;;15.18;9.82;;;23.00;99.90;;;;;;5054695;28;20037;-67
2023/08/17 08:17:06;;;;;;;15.88;9.43;;;23.00;99.90;;;;;;5055012;28;20028;-70
2023/08/17 08:19:32;;;;;;;15.57;9.82;;;23.20;99.90;;;;;;5054912;28;20039;-68
2023/08/17 08:21:58;;;;;;;13.70;8.18;;;23.20;99.90;;;;;;5054788;28;20029;-68
2023/08/17 08:24:25;;;;;;;16.98;9.63;;;23.40;99.90;;;;;;5054639;28;20059;-69
2023/08/17 08:26:52;;;;;;;12.85;9.45;;;23.50;99.90;;;;;;5054699;28;20112;-69
2023/08/17 08:29:18;;;;;;;18.27;10.68;;;23.60;99.90;;;;;;5054932;28;20465;-69
2023/08/17 08:31:46;;;;;;;15.93;9.52;;;23.70;99.90;;;;;;5054412;28;20056;-69
2023/08/17 08:34:12;;;;;;;16.80;9.60;;;23.90;99.90;;;;;;5054392;28;20025;-68
2023/08/17 08:36:37;;;;;;;15.00;9.80;;;24.00;99.90;;;;;;5055094;28;20028;-67
2023/08/17 08:39:04;;;;;;;15.60;10.75;;;24.20;99.90;;;;;;5054356;28;20032;-68
2023/08/17 08:41:30;;;;;;;16.98;10.00;;;24.30;99.90;;;;;;5054566;28;20127;-69
2023/08/17 08:43:56;;;;;;;17.38;10.10;;;24.40;99.90;;;;;;5054342;28;20108;-68
2023/08/17 08:46:26;;;;;;;16.33;9.30;;;24.40;99.90;;;;;;5054398;28;20094;-69
2023/08/17 08:48:52;;;;;;;;;;;24.30;99.90;;;;;;5052430;28;20358;-68
2023/08/17 08:51:26;;;;;;;16.05;9.27;;;24.30;99.90;;;;;;5054270;28;19931;-68
2023/08/17 08:54:01;;;;;;;13.52;8.77;;;24.40;99.90;;;;;;5055053;28;20094;-68
2023/08/17 08:56:28;;;;;;;11.75;8.63;;;24.60;99.90;;;;;;5054744;28;20112;-68
2023/08/17 08:58:54;;;;;;;13.18;9.75;;;24.80;99.90;;;;;;5053879;28;20397;-70
2023/08/17 09:01:21;;;;;;;13.70;9.50;;;24.90;99.90;;;;;;5054394;28;20035;-68
2023/08/17 09:03:48;;;;;;;12.85;9.23;;;25.00;99.90;;;;;;5054446;28;20432;-68
2023/08/17 09:06:15;;;;;;;16.10;10.38;;;25.10;99.90;;;;;;5054501;28;20442;-70
2023/08/17 09:08:42;;;;;;;16.83;9.48;;;25.20;99.90;;;;;;5053667;28;20025;-68
2023/08/17 09:11:08;;;;;;;13.43;9.15;;;25.10;99.90;;;;;;5054023;28;20046;-68
2023/08/17 09:13:34;;;;;;;15.02;9.68;;;25.30;99.90;;;;;;5054471;28;20411;-68
2023/08/17 09:16:02;;;;;;;15.07;10.48;;;25.50;99.90;;;;;;5054224;28;20047;-69
2023/08/17 09:18:28;;;;;;;14.60;10.68;;;25.40;99.90;;;;;;5053588;28;20029;-71
2023/08/17 09:20:54;;;;;;;17.38;10.05;;;25.60;99.90;;;;;;5054251;28;20032;-68
2023/08/17 09:23:21;;;;;;;17.23;10.73;;;25.80;99.90;;;;;;5053842;28;20029;-69
2023/08/17 09:25:49;;;;;;;15.65;10.70;;;26.00;99.90;;;;;;5054008;28;20025;-70
2023/08/17 09:28:20;;;;;;;16.88;10.35;;;25.90;99.90;;;;;;5053738;28;20112;-70
2023/08/17 09:31:03;;;;;;;16.13;11.02;;;25.90;99.90;;;;;;5054230;28;20532;-69
2023/08/17 09:33:31;;;;;;;16.73;10.80;;;25.70;99.90;;;;;;5054139;28;20025;-69
2023/08/17 09:35:58;;;;;;;16.33;9.32;;;25.70;99.90;;;;;;5053243;28;20025;-71
2023/08/17 09:38:24;;;;;;;16.00;10.25;;;25.90;99.90;;;;;;5053231;28;20465;-70
2023/08/17 09:40:51;;;;;;;13.75;10.43;;;26.20;99.90;;;;;;5053622;28;20036;-70
2023/08/17 09:43:18;;;;;;;15.48;10.43;;;26.30;99.90;;;;;;5052524;28;20024;-69
2023/08/17 09:45:47;;;;;;;25.67;11.07;;;26.20;99.90;;;;;;5054063;28;20017;-69
2023/08/17 09:48:15;;;;;;;17.15;10.52;;;26.30;99.90;;;;;;5053292;28;20037;-70
2023/08/17 09:50:43;;;;;;;15.30;11.07;;;26.30;99.90;;;;;;5053476;28;20103;-70
2023/08/17 09:53:13;;;;;;;13.95;10.10;;;26.30;99.90;;;;;;5053372;28;20025;-68
2023/08/17 09:55:46;;;;;;;13.25;10.13;;;26.40;99.90;;;;;;5053722;28;20021;-71
2023/08/17 09:58:14;;;;;;;16.13;11.10;;;26.50;99.90;;;;;;5053326;28;20041;-70
2023/08/17 10:00:48;;;;;;;16.25;10.23;;;26.60;99.90;;;;;;5057490;28;20108;-70
2023/08/17 10:03:15;;;;;;;17.85;10.55;;;26.60;99.90;;;;;;5057827;28;20028;-69
2023/08/17 10:05:43;;;;;;;14.75;10.68;;;26.60;99.90;;;;;;5057955;28;20033;-69
2023/08/17 10:08:11;;;;;;;15.63;10.27;;;26.70;99.90;;;;;;5057373;28;20083;-70
2023/08/17 10:10:40;;;;;;;12.98;10.13;;;26.80;99.90;;;;;;5057416;28;20025;-70
2023/08/17 10:13:23;;;;;;;16.27;11.00;;;26.80;99.90;;;;;;5058214;28;20128;-70
2023/08/17 10:16:01;;;;;;;18.38;11.50;;;27.00;99.90;;;;;;5057414;28;20060;-70
2023/08/17 10:18:41;;;;;;;16.23;11.25;;;27.20;99.90;;;;;;5057215;28;20164;-70
2023/08/17 10:21:28;;;;;;;15.68;11.00;;;27.10;99.90;;;;;;5056014;28;20028;-70
2023/08/17 10:23:57;;;;;;;13.60;11.10;;;27.30;99.90;;;;;;5057402;28;20031;-70
2023/08/17 10:26:24;;;;;;;15.13;11.38;;;27.50;99.90;;;;;;5057092;28;20021;-69
2023/08/17 10:28:51;;;;;;;15.93;10.77;;;27.70;99.90;;;;;;5056985;28;20442;-70
2023/08/17 10:31:17;;;;;;;15.80;11.43;;;28.00;99.90;;;;;;5057305;28;20482;-69
2023/08/17 10:33:47;;;;;;;16.33;11.32;;;27.90;99.90;;;;;;5055660;28;20117;-69
2023/08/17 10:36:13;;;;;;;16.77;11.57;;;27.70;99.90;;;;;;5056836;28;20481;-68
2023/08/17 10:38:39;;;;;;;16.73;11.32;;;27.60;99.90;;;;;;5057133;28;20068;-68
2023/08/17 10:41:13;;;;;;;18.08;11.95;;;27.70;99.90;;;;;;5056798;28;20059;-69
2023/08/17 10:43:58;;;;;;;14.40;10.40;;;27.90;99.90;;;;;;5056648;28;20021;-70
2023/08/17 10:46:34;;;;;;;13.55;10.50;;;28.20;99.90;;;;;;5056833;28;20107;-69
2023/08/17 10:49:07;;;;;;;15.48;11.30;;;28.60;99.90;;;;;;5056847;28;20052;-68
2023/08/17 10:51:34;;;;;;;15.60;10.40;;;29.00;99.90;;;;;;5056275;28;20523;-68
2023/08/17 10:54:02;;;;;;;15.20;11.13;;;29.00;99.90;;;;;;5056581;28;20370;-69
2023/08/17 10:56:29;;;;;;;20.95;9.98;;;29.10;99.90;;;;;;5057106;28;20021;-71
2023/08/17 10:59:00;;;;;;;15.52;10.73;;;29.20;99.90;;;;;;5056438;28;20027;-68
2023/08/17 11:01:36;;;;;;;12.25;9.90;;;29.40;99.90;;;;;;5057392;28;20025;-69
2023/08/17 11:04:32;;;;;;;14.38;10.93;;;29.70;99.90;;;;;;5057173;28;20057;-68
2023/08/17 11:07:02;;;;;;;13.57;10.80;;;30.20;99.90;;;;;;5047536;28;20061;-71
2023/08/17 11:09:28;;;;;;;16.00;10.85;;;30.40;99.90;;;;;;5056284;28;20056;-68
2023/08/17 11:11:56;;;;;;;17.50;10.63;;;30.60;99.90;;;;;;5055107;28;20458;-68
2023/08/17 11:14:22;;;;;;;16.83;11.30;;;30.60;99.90;;;;;;5055943;28;20033;-69
2023/08/17 11:16:48;;;;;;;14.77;11.52;;;30.20;99.90;;;;;;5056210;28;20028;-69
2023/08/17 11:19:13;;;;;;;14.13;11.20;;;30.30;99.90;;;;;;5056708;28;20060;-70
2023/08/17 11:21:39;;;;;;;14.18;11.32;;;30.10;99.90;;;;;;5056183;28;20366;-69
2023/08/17 11:24:09;;;;;;;16.52;11.50;;;30.00;99.90;;;;;;5056023;28;20025;-69
2023/08/17 11:26:35;;;;;;;17.27;12.05;;;29.90;99.90;;;;;;5055977;28;20038;-69
2023/08/17 11:29:05;;;;;;;15.02;11.07;;;29.80;99.90;;;;;;5056238;28;20366;-68
2023/08/17 11:31:33;;;;;;;14.13;10.75;;;30.00;99.90;;;;;;5055870;28;20110;-68
2023/08/17 11:33:59;;;;;;;13.30;11.02;;;30.10;99.90;;;;;;5055845;28;20029;-68
2023/08/17 11:36:25;;;;;;;14.10;10.63;;;30.10;99.90;;;;;;5056049;28;20159;-68
2023/08/17 11:38:52;;;;;;;18.55;11.45;;;30.00;99.90;;;;;;5056295;28;20434;-68
2023/08/17 11:41:19;;;;;;;18.67;11.75;;;29.80;99.90;;;;;;5055726;28;20025;-69
2023/08/17 11:43:46;;;;;;;16.27;11.25;;;29.60;99.90;;;;;;5055376;28;20406;-70
2023/08/17 11:46:12;;;;;;;17.05;11.80;;;29.70;99.90;;;;;;5055576;28;20485;-69
2023/08/17 11:48:38;;;;;;;14.10;10.85;;;29.70;99.90;;;;;;5055248;28;20043;-70
2023/08/17 11:51:03;;;;;;;17.48;10.50;;;29.50;99.90;;;;;;5056132;28;20354;-70
2023/08/17 11:53:39;;;;;;;17.38;10.80;;;29.30;99.90;;;;;;5055537;28;20017;-68
2023/08/17 11:56:05;;;;;;;16.80;11.05;;;29.60;99.90;;;;;;5056054;28;20468;-68
2023/08/17 11:58:43;;;;;;;13.88;11.07;;;29.70;99.90;;;;;;5055482;28;20025;-68
2023/08/17 12:01:11;;;;;;;14.70;11.15;;;29.80;99.90;;;;;;5056135;28;20103;-68
2023/08/17 12:03:36;;;;;;;16.70;10.85;;;29.90;99.90;;;;;;5055155;28;20111;-70
2023/08/17 12:06:02;;;;;;;15.40;10.85;;;30.30;99.90;;;;;;5055946;28;20107;-68
2023/08/17 12:08:29;;;;;;;20.60;11.68;;;30.50;99.90;;;;;;5055789;28;20418;-68
2023/08/17 12:10:55;;;;;;;16.42;10.82;;;30.80;99.90;;;;;;5055263;28;20096;-69
2023/08/17 12:13:32;;;;;;;21.00;10.63;;;30.90;99.90;;;;;;5055461;28;20048;-68
2023/08/17 12:15:58;;;;;;;12.85;10.40;;;31.10;99.90;;;;;;5055654;28;20033;-67
2023/08/17 12:18:25;;;;;;;15.25;11.35;;;31.00;99.90;;;;;;5054978;28;20037;-68
2023/08/17 12:20:54;;;;;;;18.30;10.82;;;30.90;99.90;;;;;;5055286;28;20033;-68
2023/08/17 12:23:20;;;;;;;16.38;11.23;;;30.50;99.90;;;;;;5054896;28;20119;-68
2023/08/17 12:25:51;;;;;;;15.02;11.00;;;30.40;99.90;;;;;;5055014;28;20043;-67
2023/08/17 12:28:17;;;;;;;16.80;11.35;;;30.50;99.90;;;;;;5054816;28;20037;-69
2023/08/17 12:30:43;;;;;;;21.15;11.38;;;30.50;99.90;;;;;;5054811;28;20028;-69
2023/08/17 12:33:09;;;;;;;14.52;11.13;;;30.60;99.90;;;;;;5055554;28;20055;-69